Time;durP1;ratioP1;P1;durP2;ratioP2;P2;SDS_P1;SDS_P2;PMS_P1;PMS_P2;Temp;Humidity;BMP_temperature;BMP_pressure;BME280_temperature;BME280_humidity;BME280_pressure;Samples;Min_cycle;Max_cycle;Signal;HPM_P1;HPM_P2
2022/12/24 00:02:07;;;;;;;15.82;2.67;;;16.50;91.10;;;;;;5042348;28;20493;-89
2022/12/24 00:04:33;;;;;;;14.05;2.42;;;16.60;91.10;;;;;;5034498;28;20025;-89
2022/12/24 00:06:58;;;;;;;10.35;2.50;;;16.50;91.10;;;;;;5034502;28;20110;-87
2022/12/24 00:09:24;;;;;;;15.32;3.15;;;16.50;91.10;;;;;;5034173;28;20028;-89
2022/12/24 00:11:50;;;;;;;12.60;2.13;;;16.50;91.10;;;;;;5052144;28;20028;-90
2022/12/24 00:14:15;;;;;;;9.35;2.30;;;16.50;91.20;;;;;;5039213;28;20039;-89
2022/12/24 00:16:41;;;;;;;16.58;3.22;;;16.50;91.20;;;;;;5054912;28;20469;-88
2022/12/24 00:19:06;;;;;;;10.88;2.50;;;16.50;91.20;;;;;;5066596;28;20394;-89
2022/12/24 00:21:32;;;;;;;8.60;2.40;;;16.50;91.20;;;;;;5034423;28;20107;-89
2022/12/24 00:23:57;;;;;;;7.45;2.65;;;16.50;91.20;;;;;;5034019;28;20025;-89
2022/12/24 00:26:23;;;;;;;5.47;2.10;;;16.50;91.20;;;;;;5034511;28;20036;-88
2022/12/24 00:28:48;;;;;;;18.88;2.90;;;16.50;91.20;;;;;;5051890;28;20040;-89
2022/12/24 00:31:17;;;;;;;10.50;2.33;;;16.50;91.20;;;;;;5034201;28;20516;-89
2022/12/24 00:33:44;;;;;;;11.63;2.65;;;16.50;91.20;;;;;;5034216;28;20057;-89
2022/12/24 00:36:09;;;;;;;8.68;2.47;;;16.50;91.20;;;;;;5034371;28;20136;-90
2022/12/24 00:38:35;;;;;;;9.35;2.67;;;16.50;91.20;;;;;;5034129;28;20116;-91
2022/12/24 00:41:03;;;;;;;8.82;2.58;;;16.50;91.30;;;;;;5033923;28;20021;-91
2022/12/24 00:43:29;;;;;;;10.82;3.03;;;16.50;91.20;;;;;;5033782;28;20083;-89
2022/12/24 00:45:55;;;;;;;13.73;3.13;;;16.50;91.30;;;;;;5034462;28;20029;-89
2022/12/24 00:48:21;;;;;;;12.13;2.72;;;16.50;91.30;;;;;;5034045;28;20050;-87
2022/12/24 00:50:47;;;;;;;10.27;2.63;;;16.50;91.30;;;;;;5051877;28;20075;-89
2022/12/24 00:53:13;;;;;;;8.10;2.97;;;16.50;91.30;;;;;;5034058;28;20032;-89
2022/12/24 00:55:39;;;;;;;10.13;3.03;;;16.50;91.30;;;;;;5034265;28;20018;-90
2022/12/24 00:58:04;;;;;;;9.13;2.85;;;16.50;91.30;;;;;;5034043;28;20029;-89
2022/12/24 01:00:30;;;;;;;13.30;2.38;;;16.50;91.30;;;;;;5033861;28;20033;-87
2022/12/24 01:02:55;;;;;;;10.38;2.85;;;16.50;91.40;;;;;;5034006;28;20115;-89
2022/12/24 01:05:21;;;;;;;9.52;2.53;;;16.50;91.30;;;;;;5033800;28;20032;-89
2022/12/24 01:07:47;;;;;;;10.90;2.63;;;16.50;91.40;;;;;;5070952;22;20065;-85
2022/12/24 01:10:15;;;;;;;9.48;2.72;;;16.50;91.40;;;;;;5012162;28;20088;-85
2022/12/24 01:12:42;;;;;;;6.45;2.65;;;16.50;91.40;;;;;;5011132;28;20060;-85
2022/12/24 01:15:09;;;;;;;12.55;2.55;;;16.40;91.40;;;;;;5011300;28;20022;-85
2022/12/24 01:17:35;;;;;;;10.95;2.72;;;16.50;91.40;;;;;;5011099;28;20118;-85
2022/12/24 01:20:02;;;;;;;8.35;3.33;;;16.50;91.40;;;;;;5012596;28;20097;-86
2022/12/24 01:22:27;;;;;;;6.97;2.53;;;16.50;91.40;;;;;;5011297;28;20033;-85
2022/12/24 01:24:53;;;;;;;7.72;2.67;;;16.50;91.40;;;;;;5027806;28;20022;-85
2022/12/24 01:27:19;;;;;;;7.25;2.83;;;16.40;91.40;;;;;;5011371;28;20053;-84
2022/12/24 01:29:44;;;;;;;9.52;3.35;;;16.50;91.50;;;;;;5012695;28;20029;-84
2022/12/24 01:32:10;;;;;;;4.85;2.60;;;16.50;91.50;;;;;;5012081;28;20418;-84
2022/12/24 01:34:35;;;;;;;7.47;2.75;;;16.40;91.40;;;;;;5012151;28;20538;-85
2022/12/24 01:37:01;;;;;;;15.30;3.08;;;16.50;91.50;;;;;;5016915;28;20049;-85
2022/12/24 01:39:27;;;;;;;7.13;3.00;;;16.40;91.50;;;;;;5046859;28;20014;-85
2022/12/24 01:44:42;;;;;;;10.45;2.58;;;16.40;91.50;;;;;;5045801;28;20016;-89
2022/12/24 01:47:25;;;;;;;11.77;3.10;;;16.40;91.50;;;;;;5043709;28;20026;-88
2022/12/24 01:49:55;;;;;;;12.15;3.20;;;16.40;91.50;;;;;;5040073;28;20018;-88
2022/12/24 01:52:30;;;;;;;8.18;3.22;;;16.40;91.50;;;;;;5043129;28;20037;-88
2022/12/24 01:55:14;;;;;;;6.93;2.70;;;16.40;91.50;;;;;;5039012;28;20101;-89
2022/12/24 01:57:47;;;;;;;7.60;2.65;;;16.40;91.50;;;;;;5035296;28;20057;-89
2022/12/24 02:00:15;;;;;;;8.00;2.65;;;16.40;91.60;;;;;;5013576;28;20049;-86
2022/12/24 02:02:44;;;;;;;15.02;3.22;;;16.40;91.60;;;;;;5014474;28;20032;-86
2022/12/24 02:05:15;;;;;;;10.30;3.30;;;16.40;91.70;;;;;;5015606;28;20064;-87
2022/12/24 02:07:41;;;;;;;10.85;3.40;;;16.40;91.80;;;;;;5012716;28;20510;-86
2022/12/24 02:10:10;;;;;;;18.17;3.78;;;16.40;91.70;;;;;;5013441;28;20025;-86
2022/12/24 02:12:37;;;;;;;25.92;3.80;;;16.50;91.70;;;;;;5014972;28;20033;-86
2022/12/24 02:15:05;;;;;;;8.75;2.97;;;16.50;91.70;;;;;;5013440;28;20034;-86
2022/12/24 02:17:37;;;;;;;13.27;3.00;;;16.40;91.80;;;;;;5013897;28;20472;-87
2022/12/24 02:20:33;;;;;;;12.18;3.50;;;16.40;91.70;;;;;;5012696;28;20026;-87
2022/12/24 02:23:24;;;;;;;15.65;3.40;;;16.40;91.80;;;;;;5013774;28;20026;-87
2022/12/24 02:26:08;;;;;;;9.55;3.42;;;16.40;91.70;;;;;;5013773;28;20482;-86
2022/12/24 02:29:04;;;;;;;11.48;3.67;;;16.40;91.80;;;;;;5013549;28;20026;-86
2022/12/24 02:31:41;;;;;;;7.50;2.60;;;16.40;91.80;;;;;;5013426;28;20072;-87
2022/12/24 02:34:31;;;;;;;12.88;3.65;;;16.40;91.70;;;;;;5012900;28;20065;-87
2022/12/24 02:37:09;;;;;;;8.98;3.33;;;16.40;91.80;;;;;;5013832;28;20451;-87
2022/12/24 02:39:40;;;;;;;14.20;4.28;;;16.40;91.80;;;;;;5006951;28;20435;-85
2022/12/24 02:42:10;;;;;;;7.35;2.97;;;16.40;91.80;;;;;;4995479;28;20149;-86
2022/12/24 02:44:44;;;;;;;8.75;3.28;;;16.40;91.80;;;;;;4993749;28;20105;-86
2022/12/24 02:47:11;;;;;;;10.93;3.60;;;16.40;91.80;;;;;;4995046;28;20033;-87
2022/12/24 02:49:37;;;;;;;8.38;3.05;;;16.40;91.80;;;;;;4993519;28;20026;-87
2022/12/24 02:52:03;;;;;;;12.15;3.10;;;16.40;91.80;;;;;;5012259;28;20072;-87
2022/12/24 02:54:29;;;;;;;9.80;3.13;;;16.40;91.80;;;;;;5006395;28;20022;-86
2022/12/24 02:57:19;;;;;;;13.25;3.15;;;16.40;91.80;;;;;;5011848;28;20025;-87
2022/12/24 02:59:59;;;;;;;11.70;3.75;;;16.40;91.80;;;;;;5014225;28;20026;-86
2022/12/24 03:02:43;;;;;;;10.93;3.78;;;16.40;91.80;;;;;;5007814;28;20118;-86
2022/12/24 03:05:37;;;;;;;14.02;3.22;;;16.40;92.10;;;;;;4994542;28;20056;-87
2022/12/24 03:08:24;;;;;;;9.07;3.10;;;16.40;91.80;;;;;;4993028;28;20060;-85
2022/12/24 03:11:01;;;;;;;12.52;3.38;;;16.40;91.80;;;;;;5009442;28;20026;-86
2022/12/24 03:13:28;;;;;;;13.32;3.70;;;16.40;91.80;;;;;;4994387;28;20113;-86
2022/12/24 03:15:54;;;;;;;10.38;3.20;;;16.40;91.80;;;;;;4992847;28;20026;-86
2022/12/24 03:18:23;;;;;;;9.27;3.17;;;16.40;91.80;;;;;;4997770;28;20080;-86
2022/12/24 03:21:05;;;;;;;13.27;3.58;;;16.40;91.80;;;;;;5004521;28;20492;-86
2022/12/24 03:23:31;;;;;;;10.90;3.33;;;16.40;91.80;;;;;;4992970;28;20034;-85
2022/12/24 03:26:00;;;;;;;15.52;3.95;;;16.40;91.80;;;;;;5003060;28;20030;-87
2022/12/24 03:28:27;;;;;;;9.57;3.10;;;16.40;91.80;;;;;;5015361;28;20087;-87
2022/12/24 03:30:53;;;;;;;12.98;4.13;;;16.40;91.80;;;;;;5014385;28;20479;-87
2022/12/24 03:33:19;;;;;;;14.15;3.22;;;16.40;91.80;;;;;;5009463;28;20033;-87
2022/12/24 03:35:44;;;;;;;14.85;3.25;;;16.40;91.90;;;;;;5012017;28;20018;-86
2022/12/24 03:38:10;;;;;;;9.80;3.25;;;16.40;91.80;;;;;;5012636;28;20109;-86
2022/12/24 03:40:36;;;;;;;7.70;3.40;;;16.40;91.90;;;;;;5013223;28;20447;-87
2022/12/24 03:43:02;;;;;;;7.72;3.30;;;16.40;92.20;;;;;;5012950;28;20423;-87
2022/12/24 03:45:27;;;;;;;9.60;3.00;;;16.40;91.90;;;;;;5013280;28;20026;-86
2022/12/24 03:47:53;;;;;;;11.70;3.03;;;16.40;91.90;;;;;;5012045;28;20026;-86
2022/12/24 03:50:18;;;;;;;9.23;2.78;;;16.40;91.90;;;;;;5011926;28;20037;-87
2022/12/24 03:52:44;;;;;;;5.72;2.95;;;16.40;91.90;;;;;;5011892;28;20510;-87
2022/12/24 03:55:10;;;;;;;19.10;5.55;;;16.40;91.90;;;;;;5013136;28;20865;-86
2022/12/24 03:57:35;;;;;;;9.43;3.78;;;16.30;91.90;;;;;;5011912;28;20521;-86
2022/12/24 04:00:03;;;;;;;5.97;2.63;;;16.40;92.00;;;;;;5011008;28;20488;-87
2022/12/24 04:02:29;;;;;;;6.28;2.67;;;16.30;91.90;;;;;;5013054;28;20148;-86
2022/12/24 04:04:54;;;;;;;10.27;3.33;;;16.30;91.90;;;;;;5011698;28;20113;-86
2022/12/24 04:07:20;;;;;;;11.68;2.80;;;16.40;91.90;;;;;;5011697;28;20037;-86
2022/12/24 04:09:45;;;;;;;8.60;2.97;;;16.30;92.20;;;;;;5011770;28;20021;-86
2022/12/24 04:12:11;;;;;;;8.30;3.13;;;16.30;91.80;;;;;;5011628;28;20046;-87
2022/12/24 04:14:36;;;;;;;5.63;2.92;;;16.30;91.90;;;;;;5012588;28;20022;-86
2022/12/24 04:17:02;;;;;;;7.15;2.95;;;16.40;91.90;;;;;;5010203;28;20093;-87
2022/12/24 04:19:28;;;;;;;10.20;3.17;;;16.30;91.90;;;;;;5005181;28;20018;-87
2022/12/24 04:21:53;;;;;;;6.45;2.95;;;16.30;91.90;;;;;;5011425;28;20269;-86
2022/12/24 04:24:19;;;;;;;7.65;2.72;;;16.30;91.90;;;;;;5004983;28;20033;-87
2022/12/24 04:26:44;;;;;;;8.55;2.60;;;16.40;91.90;;;;;;5011666;28;20068;-86
2022/12/24 04:29:10;;;;;;;10.23;2.60;;;16.30;91.90;;;;;;5012898;28;20084;-86
2022/12/24 04:31:35;;;;;;;8.88;3.05;;;16.30;91.90;;;;;;5012626;28;20034;-86
2022/12/24 04:34:01;;;;;;;22.20;3.22;;;16.30;91.90;;;;;;5011668;28;20026;-86
2022/12/24 04:36:26;;;;;;;9.30;3.45;;;16.40;92.10;;;;;;5027839;28;20121;-86
2022/12/24 04:38:52;;;;;;;8.77;3.13;;;16.30;92.00;;;;;;5011652;28;20030;-86
2022/12/24 04:41:19;;;;;;;7.38;3.08;;;16.30;92.00;;;;;;5012906;28;20033;-86
2022/12/24 04:43:45;;;;;;;17.52;3.53;;;16.30;92.00;;;;;;5011643;28;20030;-86
2022/12/24 04:46:14;;;;;;;7.40;2.75;;;16.30;92.00;;;;;;5009209;28;20026;-87
2022/12/24 04:48:40;;;;;;;9.35;3.20;;;16.30;92.00;;;;;;4991736;28;20073;-86
2022/12/24 04:51:07;;;;;;;6.97;3.28;;;16.30;92.00;;;;;;4993661;28;20027;-85
2022/12/24 04:53:34;;;;;;;11.00;3.28;;;16.30;92.00;;;;;;5027861;28;20026;-86
2022/12/24 04:56:00;;;;;;;10.75;3.33;;;16.30;91.90;;;;;;5011062;28;20036;-86
2022/12/24 04:58:26;;;;;;;10.73;3.22;;;16.30;92.00;;;;;;5012415;28;20018;-86
2022/12/24 05:00:52;;;;;;;13.30;3.70;;;16.30;91.90;;;;;;5011178;28;20029;-86
2022/12/24 05:03:18;;;;;;;10.93;3.28;;;16.30;92.00;;;;;;5011668;28;20037;-86
2022/12/24 05:05:43;;;;;;;10.32;2.80;;;16.30;92.00;;;;;;5028047;28;20026;-85
2022/12/24 05:08:09;;;;;;;6.93;3.17;;;16.30;92.00;;;;;;5011341;28;20133;-86
2022/12/24 05:10:36;;;;;;;6.68;3.35;;;16.30;91.90;;;;;;5011391;28;20065;-85
2022/12/24 05:13:02;;;;;;;8.20;2.97;;;16.30;92.00;;;;;;5016109;28;20026;-86
2022/12/24 05:15:28;;;;;;;10.73;3.05;;;16.30;92.10;;;;;;5014984;28;20026;-86
2022/12/24 05:17:53;;;;;;;12.40;3.10;;;16.30;92.00;;;;;;4999525;28;20018;-86
2022/12/24 05:20:19;;;;;;;10.88;2.80;;;16.30;92.00;;;;;;4995195;28;20037;-86
2022/12/24 05:28:23;;;;;;;9.20;2.47;;;16.30;91.90;;;;;;5016385;28;20122;-85
2022/12/24 05:30:49;;;;;;;7.22;2.67;;;16.30;91.90;;;;;;5014395;28;20117;-88
2022/12/24 05:33:14;;;;;;;10.10;3.40;;;16.30;91.90;;;;;;4996782;28;20121;-87
2022/12/24 05:35:40;;;;;;;8.07;2.90;;;16.20;91.90;;;;;;5000359;28;20029;-87
2022/12/24 05:38:05;;;;;;;8.07;2.70;;;16.20;91.90;;;;;;5006358;28;20087;-88
2022/12/24 05:40:31;;;;;;;5.53;2.55;;;16.30;91.90;;;;;;5009462;28;20148;-86
2022/12/24 05:42:56;;;;;;;5.90;2.90;;;16.30;92.00;;;;;;4995072;28;20504;-86
2022/12/24 05:45:22;;;;;;;7.47;3.00;;;16.30;92.00;;;;;;4994918;28;20023;-86
2022/12/24 05:47:47;;;;;;;4.78;2.45;;;16.30;92.00;;;;;;5024645;28;20053;-87
2022/12/24 05:50:13;;;;;;;5.28;2.60;;;16.30;91.90;;;;;;5031754;28;20033;-87
2022/12/24 05:52:39;;;;;;;7.00;2.92;;;16.30;91.90;;;;;;5031966;28;20025;-87
2022/12/24 05:55:05;;;;;;;8.85;2.90;;;16.30;91.90;;;;;;5024732;28;20022;-87
2022/12/24 05:57:30;;;;;;;7.22;3.15;;;16.30;91.90;;;;;;5024514;28;20120;-88
2022/12/24 05:59:56;;;;;;;6.25;2.97;;;16.30;92.00;;;;;;5032728;28;20621;-87
2022/12/24 06:02:21;;;;;;;6.35;2.75;;;16.30;92.00;;;;;;5020673;28;20547;-86
2022/12/24 06:04:47;;;;;;;12.27;2.92;;;16.30;92.00;;;;;;5014348;28;20553;-86
2022/12/24 06:07:12;;;;;;;9.02;2.80;;;16.30;92.00;;;;;;5005163;28;20054;-86
2022/12/24 06:09:38;;;;;;;6.10;2.50;;;16.40;92.00;;;;;;5006947;28;20025;-85
2022/12/24 06:12:03;;;;;;;6.05;2.58;;;16.40;92.10;;;;;;5014185;28;20060;-87
2022/12/24 06:14:29;;;;;;;8.95;2.88;;;16.40;92.00;;;;;;5013731;28;20026;-87
2022/12/24 06:16:54;;;;;;;6.82;3.35;;;16.40;92.00;;;;;;5014234;28;20026;-87
2022/12/24 06:19:20;;;;;;;7.40;3.22;;;16.40;92.00;;;;;;5013984;28;20026;-86
2022/12/24 06:21:46;;;;;;;11.30;3.00;;;16.40;92.00;;;;;;5012919;28;20032;-86
2022/12/24 06:24:11;;;;;;;12.23;3.42;;;16.40;92.00;;;;;;5015024;28;20034;-87
2022/12/24 06:26:37;;;;;;;6.35;2.85;;;16.40;92.00;;;;;;5014914;28;20053;-86
2022/12/24 06:29:02;;;;;;;7.53;3.17;;;16.40;92.60;;;;;;5013551;28;20534;-87
2022/12/24 06:31:28;;;;;;;15.82;3.10;;;16.50;92.20;;;;;;5013140;28;20140;-87
2022/12/24 06:33:54;;;;;;;7.93;2.65;;;16.50;92.20;;;;;;5014954;28;20402;-88
2022/12/24 06:36:23;;;;;;;8.40;2.25;;;16.50;92.20;;;;;;5012213;28;20033;-86
2022/12/24 06:38:50;;;;;;;9.60;2.85;;;16.50;92.30;;;;;;4994226;28;20026;-86
2022/12/24 06:41:16;;;;;;;8.75;3.10;;;16.50;92.30;;;;;;4997566;28;20026;-86
2022/12/24 06:43:46;;;;;;;11.02;2.90;;;16.50;92.20;;;;;;5013822;28;20030;-86
2022/12/24 06:46:12;;;;;;;12.10;2.80;;;16.50;92.20;;;;;;5013104;28;20057;-86
2022/12/24 06:48:37;;;;;;;11.85;2.38;;;16.50;92.20;;;;;;5014582;28;20513;-87
2022/12/24 06:51:03;;;;;;;8.10;3.10;;;16.50;92.20;;;;;;5014190;28;20022;-86
2022/12/24 06:53:30;;;;;;;9.25;3.00;;;16.50;92.10;;;;;;5013149;28;20083;-85
2022/12/24 06:56:05;;;;;;;10.18;2.80;;;16.50;92.10;;;;;;5013029;28;20020;-87
2022/12/24 06:58:32;;;;;;;6.88;2.70;;;16.50;92.10;;;;;;5005762;28;20505;-88
2022/12/24 07:01:00;;;;;;;8.93;2.42;;;16.60;92.10;;;;;;5013705;28;20061;-86
2022/12/24 07:03:26;;;;;;;6.10;2.80;;;16.60;92.10;;;;;;5014122;28;20056;-87
2022/12/24 07:05:53;;;;;;;9.80;3.25;;;16.60;92.10;;;;;;5012702;28;20084;-88
2022/12/24 07:08:18;;;;;;;7.30;3.13;;;16.60;92.10;;;;;;5013942;28;20040;-88
2022/12/24 07:10:44;;;;;;;10.52;3.00;;;16.60;92.10;;;;;;5012419;28;20026;-87
2022/12/24 07:13:09;;;;;;;8.25;2.30;;;16.60;92.00;;;;;;5028897;28;20034;-88
2022/12/24 07:15:35;;;;;;;7.50;2.88;;;16.60;92.00;;;;;;5012929;28;20032;-87
2022/12/24 07:18:00;;;;;;;9.40;2.88;;;16.60;92.00;;;;;;5030415;28;20018;-84
2022/12/24 07:20:26;;;;;;;9.00;3.03;;;16.60;92.00;;;;;;5013919;28;20483;-86
2022/12/24 07:22:51;;;;;;;10.57;2.38;;;16.60;92.00;;;;;;5013210;28;20044;-83
2022/12/24 07:25:17;;;;;;;8.27;2.47;;;16.60;92.00;;;;;;5005603;28;20034;-84
2022/12/24 07:27:42;;;;;;;11.70;3.00;;;16.60;92.00;;;;;;5001097;28;20026;-82
2022/12/24 07:30:09;;;;;;;10.20;2.60;;;16.60;92.00;;;;;;5014618;28;20070;-84
2022/12/24 07:32:35;;;;;;;7.93;2.72;;;16.60;92.00;;;;;;5015156;28;20064;-83
2022/12/24 07:35:00;;;;;;;11.60;2.78;;;16.60;92.00;;;;;;5009188;28;20023;-83
2022/12/24 07:37:26;;;;;;;5.78;2.60;;;16.60;91.90;;;;;;4996207;28;20019;-82
2022/12/24 07:39:51;;;;;;;7.72;2.58;;;16.60;91.90;;;;;;4997929;28;20026;-83
2022/12/24 07:42:17;;;;;;;6.88;2.78;;;16.60;91.80;;;;;;5015754;28;20026;-83
2022/12/24 07:44:43;;;;;;;6.07;2.50;;;16.60;91.80;;;;;;5015049;28;20022;-82
2022/12/24 07:47:08;;;;;;;7.40;2.45;;;16.60;91.80;;;;;;5013709;28;20030;-82
2022/12/24 07:49:35;;;;;;;4.00;2.35;;;16.60;91.80;;;;;;5013177;28;20025;-85
2022/12/24 07:52:01;;;;;;;8.35;2.30;;;16.60;91.80;;;;;;5010595;28;20021;-85
2022/12/24 07:54:26;;;;;;;7.00;2.20;;;16.60;91.80;;;;;;5006296;28;20076;-83
2022/12/24 07:56:52;;;;;;;5.93;2.33;;;16.60;91.80;;;;;;5012225;28;20018;-88
2022/12/24 07:59:17;;;;;;;10.65;2.55;;;16.60;91.80;;;;;;5011945;28;20033;-86
2022/12/24 08:01:44;;;;;;;5.75;2.63;;;16.60;91.80;;;;;;5006509;28;20018;-85
2022/12/24 08:04:09;;;;;;;5.20;2.45;;;16.60;91.80;;;;;;5001746;28;20037;-86
2022/12/24 08:06:35;;;;;;;14.52;2.63;;;16.60;92.10;;;;;;5012098;28;20034;-86
2022/12/24 08:09:01;;;;;;;7.28;2.90;;;16.60;91.80;;;;;;5011995;28;20049;-85
2022/12/24 08:11:26;;;;;;;3.45;2.10;;;16.60;91.80;;;;;;5004839;28;20026;-85
2022/12/24 08:13:52;;;;;;;8.23;2.28;;;16.60;92.10;;;;;;5011779;28;20033;-86
2022/12/24 08:16:17;;;;;;;4.22;2.13;;;16.60;91.70;;;;;;5003732;28;20022;-85
2022/12/24 08:18:43;;;;;;;5.40;2.30;;;16.70;91.70;;;;;;5001258;28;20027;-85
2022/12/24 08:21:09;;;;;;;3.97;2.25;;;16.60;91.70;;;;;;5001209;28;20022;-85
2022/12/24 08:23:35;;;;;;;7.53;2.20;;;16.70;92.00;;;;;;5003746;28;20021;-86
2022/12/24 08:26:02;;;;;;;5.55;2.28;;;16.70;91.70;;;;;;5005080;28;20560;-85
2022/12/24 08:28:28;;;;;;;6.78;3.03;;;16.60;91.60;;;;;;5011909;28;20078;-86
2022/12/24 08:30:54;;;;;;;4.72;1.98;;;16.70;91.70;;;;;;5010772;28;20040;-85
2022/12/24 08:33:19;;;;;;;4.38;1.77;;;16.70;91.70;;;;;;5011099;28;20034;-86
2022/12/24 08:35:50;;;;;;;4.20;2.30;;;16.70;91.70;;;;;;5025436;28;20030;-86
2022/12/24 08:38:16;;;;;;;5.22;2.20;;;16.70;91.60;;;;;;5011111;28;20057;-87
2022/12/24 08:40:42;;;;;;;5.00;2.10;;;16.70;91.60;;;;;;5011234;28;20653;-87
2022/12/24 08:43:08;;;;;;;5.20;2.20;;;16.70;91.60;;;;;;5011749;28;20037;-87
2022/12/24 08:45:34;;;;;;;2.92;1.80;;;16.70;91.60;;;;;;5013772;28;20025;-87
2022/12/24 08:47:59;;;;;;;4.25;2.13;;;16.70;91.60;;;;;;5016857;28;20030;-87
2022/12/24 08:50:27;;;;;;;4.03;2.30;;;16.70;91.50;;;;;;5011236;28;20506;-87
2022/12/24 08:52:52;;;;;;;4.20;1.92;;;16.70;91.50;;;;;;5012440;28;20022;-87
2022/12/24 08:55:18;;;;;;;3.15;1.67;;;16.70;91.50;;;;;;5017920;28;20083;-87
2022/12/24 08:57:43;;;;;;;5.47;2.15;;;16.80;91.90;;;;;;5011885;28;20073;-88
2022/12/24 09:00:12;;;;;;;4.65;1.90;;;16.80;91.60;;;;;;5005237;28;20112;-87
2022/12/24 09:02:37;;;;;;;5.72;2.05;;;16.70;91.50;;;;;;5012429;28;20017;-87
2022/12/24 09:05:03;;;;;;;5.05;2.33;;;16.80;91.50;;;;;;5030295;28;20036;-86
2022/12/24 09:07:29;;;;;;;3.60;1.90;;;16.80;91.50;;;;;;5014869;28;20026;-86
2022/12/24 09:09:55;;;;;;;5.35;2.08;;;16.80;91.50;;;;;;5015547;28;20113;-86
2022/12/24 09:12:20;;;;;;;3.17;1.80;;;16.80;91.50;;;;;;5007382;28;20070;-86
2022/12/24 09:14:46;;;;;;;4.70;2.38;;;16.80;91.40;;;;;;5013356;28;20037;-87
2022/12/24 09:17:11;;;;;;;3.72;2.00;;;16.80;91.40;;;;;;5014603;28;20038;-85
2022/12/24 09:19:37;;;;;;;2.67;1.80;;;16.80;91.40;;;;;;5009009;28;20072;-87
2022/12/24 09:22:03;;;;;;;4.00;2.05;;;16.80;91.40;;;;;;5000924;28;20049;-87
2022/12/24 09:24:29;;;;;;;7.97;2.53;;;16.80;91.40;;;;;;5011154;28;20028;-87
2022/12/24 09:26:55;;;;;;;3.28;1.80;;;16.80;91.30;;;;;;5010499;28;20018;-87
2022/12/24 09:29:20;;;;;;;5.25;1.95;;;16.80;91.30;;;;;;5002516;28;20019;-88
2022/12/24 09:31:46;;;;;;;10.05;2.05;;;16.80;91.30;;;;;;5009333;28;20029;-87
2022/12/24 09:34:11;;;;;;;4.20;1.60;;;16.80;91.20;;;;;;5012314;28;20030;-87
2022/12/24 09:36:37;;;;;;;4.15;2.00;;;16.90;91.20;;;;;;5031268;28;20430;-87
2022/12/24 09:39:02;;;;;;;6.70;1.65;;;16.90;91.20;;;;;;5031349;28;20017;-87
2022/12/24 09:41:53;;;;;;;3.92;1.70;;;16.90;91.20;;;;;;5026519;28;20394;-85
2022/12/24 09:44:18;;;;;;;;;;;16.90;91.20;;;;;;5012144;28;20488;-88
2022/12/24 09:46:46;;;;;;;6.05;1.80;;;16.90;91.20;;;;;;5009021;28;19910;-86
2022/12/24 09:49:25;;;;;;;4.78;1.90;;;16.90;91.20;;;;;;5011884;28;20512;-87
2022/12/24 09:52:03;;;;;;;2.83;1.55;;;16.90;91.20;;;;;;5008999;28;20026;-86
2022/12/24 09:54:34;;;;;;;4.15;1.90;;;16.90;91.10;;;;;;5030589;28;20049;-86
2022/12/24 09:57:22;;;;;;;6.22;1.90;;;16.90;91.20;;;;;;5013451;28;20033;-86
2022/12/24 09:59:49;;;;;;;2.40;1.65;;;17.00;91.10;;;;;;5008412;28;20025;-84
2022/12/24 10:02:17;;;;;;;2.63;1.70;;;17.00;91.00;;;;;;5012689;28;20113;-87
2022/12/24 10:04:44;;;;;;;3.55;1.70;;;17.00;91.20;;;;;;5015300;28;20029;-86
2022/12/24 10:07:30;;;;;;;3.97;1.42;;;17.00;91.30;;;;;;5005678;28;20042;-88
2022/12/24 10:10:13;;;;;;;2.00;1.52;;;17.00;91.30;;;;;;5014234;28;20391;-88
2022/12/24 10:12:58;;;;;;;2.97;1.88;;;17.00;91.30;;;;;;5023106;28;20026;-88
2022/12/24 10:15:28;;;;;;;6.03;1.67;;;17.00;91.20;;;;;;5021466;28;20049;-87
2022/12/24 10:17:53;;;;;;;;;;;17.00;91.00;;;;;;5010131;28;20112;-88
2022/12/24 10:20:41;;;;;;;3.40;1.45;;;17.10;91.10;;;;;;5002898;28;19913;-88
2022/12/24 10:23:38;;;;;;;3.38;1.80;;;17.10;91.20;;;;;;5024159;28;20030;-87
2022/12/24 10:26:26;;;;;;;7.63;2.50;;;17.10;91.60;;;;;;5013052;28;20016;-87
2022/12/24 10:28:54;;;;;;;9.23;2.10;;;17.20;91.90;;;;;;5007770;28;20028;-88
2022/12/24 10:31:32;;;;;;;8.40;2.58;;;17.20;91.90;;;;;;5015469;28;20507;-88
2022/12/24 10:34:05;;;;;;;7.60;2.00;;;17.20;91.60;;;;;;5010196;28;20030;-90
2022/12/24 10:36:32;;;;;;;6.90;1.80;;;17.30;91.70;;;;;;5014389;28;20495;-86
2022/12/24 10:38:58;;;;;;;4.93;1.67;;;17.30;91.70;;;;;;5011679;28;20052;-86
2022/12/24 10:41:26;;;;;;;10.45;2.38;;;17.40;91.80;;;;;;5010049;28;20037;-87
2022/12/24 10:43:52;;;;;;;11.45;3.25;;;17.40;92.00;;;;;;5015193;28;20022;-85
2022/12/24 10:46:36;;;;;;;10.55;3.00;;;17.40;92.30;;;;;;5010676;28;20036;-86
2022/12/24 10:49:35;;;;;;;20.90;2.45;;;17.40;92.80;;;;;;5007414;28;20503;-87
2022/12/24 10:52:23;;;;;;;7.55;2.83;;;17.40;92.70;;;;;;5008238;28;20038;-86
2022/12/24 10:55:10;;;;;;;5.22;1.60;;;17.40;92.80;;;;;;5002382;28;20022;-87
2022/12/24 10:57:37;;;;;;;5.43;1.70;;;16.90;82.30;;;;;;5029139;28;20029;-87
2022/12/24 11:00:05;;;;;;;9.23;1.50;;;16.30;80.00;;;;;;5007728;28;20080;-90
2022/12/24 11:02:36;;;;;;;2.22;1.10;;;15.90;82.40;;;;;;5012835;28;20510;-89
2022/12/24 11:05:06;;;;;;;3.42;1.33;;;15.90;81.00;;;;;;5009521;28;20029;-89
2022/12/24 11:07:33;;;;;;;5.63;1.35;;;15.80;81.10;;;;;;5004402;28;20038;-88
2022/12/24 11:10:04;;;;;;;9.82;1.30;;;16.00;82.90;;;;;;5013671;28;20333;-85
2022/12/24 11:12:34;;;;;;;3.08;1.38;;;16.20;83.30;;;;;;5012764;28;20041;-84
2022/12/24 11:15:15;;;;;;;2.78;1.20;;;16.50;84.20;;;;;;5010510;28;20037;-88
2022/12/24 11:17:40;;;;;;;4.88;1.20;;;16.50;84.40;;;;;;5006542;28;20038;-86
2022/12/24 11:20:16;;;;;;;2.20;1.20;;;16.60;84.60;;;;;;5007274;28;20025;-87
2022/12/24 11:22:47;;;;;;;5.18;1.10;;;16.70;85.40;;;;;;5022669;28;20029;-83
2022/12/24 11:25:21;;;;;;;6.05;1.35;;;16.80;85.60;;;;;;5030268;28;20498;-85
2022/12/24 11:27:51;;;;;;;6.15;1.60;;;16.80;85.70;;;;;;5030526;28;20049;-86
2022/12/24 11:30:31;;;;;;;5.68;1.48;;;16.80;86.00;;;;;;5002560;28;20503;-86
2022/12/24 11:32:59;;;;;;;6.15;1.17;;;16.90;86.30;;;;;;5014892;28;20044;-86
2022/12/24 11:35:26;;;;;;;7.88;1.40;;;16.90;86.40;;;;;;5013048;28;20030;-85
2022/12/24 11:38:04;;;;;;;3.78;1.38;;;16.90;86.60;;;;;;5005494;28;20018;-86
2022/12/24 11:40:44;;;;;;;7.22;1.63;;;16.90;87.00;;;;;;5012024;28;20467;-85
2022/12/24 11:43:19;;;;;;;1.90;1.00;;;16.90;87.40;;;;;;5005243;28;20085;-85
2022/12/24 11:46:31;;;;;;;3.83;1.27;;;16.90;87.50;;;;;;5009039;28;20030;-85
2022/12/24 11:49:12;;;;;;;6.25;1.38;;;16.90;87.50;;;;;;5004475;28;20033;-84
2022/12/24 11:51:39;;;;;;;4.03;1.20;;;16.90;87.70;;;;;;5013053;28;20621;-82
2022/12/24 11:54:18;;;;;;;4.95;1.17;;;17.00;88.00;;;;;;5013545;28;20030;-84
2022/12/24 11:56:52;;;;;;;6.20;1.23;;;17.00;88.10;;;;;;5009393;28;20746;-84
2022/12/24 11:59:29;;;;;;;4.40;1.58;;;17.00;88.30;;;;;;5013261;28;20129;-87
2022/12/24 12:02:14;;;;;;;2.72;1.05;;;17.00;88.50;;;;;;5004768;28;20026;-85
2022/12/24 12:04:42;;;;;;;2.88;1.35;;;17.00;88.90;;;;;;4997986;28;20426;-84
2022/12/24 12:07:21;;;;;;;5.35;1.10;;;17.10;88.90;;;;;;5012044;28;20041;-83
2022/12/24 12:09:56;;;;;;;1.83;1.50;;;17.10;89.20;;;;;;5007810;28;20112;-84
2022/12/24 12:12:26;;;;;;;5.53;1.05;;;17.10;89.30;;;;;;5002188;28;20050;-84
2022/12/24 12:15:05;;;;;;;3.97;1.30;;;17.10;89.40;;;;;;5012399;28;20053;-85
2022/12/24 12:17:57;;;;;;;9.95;2.03;;;17.10;89.40;;;;;;5003833;28;20032;-83
2022/12/24 12:20:30;;;;;;;6.75;1.45;;;17.10;89.40;;;;;;5013561;28;20049;-83
2022/12/24 12:23:29;;;;;;;6.47;1.83;;;17.10;89.60;;;;;;5013519;28;20026;-84
2022/12/24 12:26:06;;;;;;;8.50;2.10;;;17.10;89.60;;;;;;5022624;28;20065;-83
2022/12/24 12:28:46;;;;;;;15.18;3.85;;;17.10;89.60;;;;;;5018708;28;20036;-83
2022/12/24 12:31:34;;;;;;;21.08;4.80;;;17.10;89.70;;;;;;5018577;28;20030;-83
2022/12/24 12:34:06;;;;;;;35.30;7.18;;;17.10;89.70;;;;;;5009984;28;20411;-83
2022/12/24 12:36:38;;;;;;;44.40;9.30;;;17.10;89.90;;;;;;5016432;28;20030;-87
2022/12/24 12:39:05;;;;;;;42.03;10.52;;;17.10;90.00;;;;;;5038887;28;20014;-86
2022/12/24 12:41:57;;;;;;;53.53;12.82;;;17.10;90.10;;;;;;5031968;28;20028;-88
2022/12/24 12:44:44;;;;;;;53.20;12.60;;;17.10;90.10;;;;;;5031789;28;20042;-87
2022/12/24 12:47:32;;;;;;;66.72;14.23;;;17.10;90.20;;;;;;5032585;28;20029;-86
2022/12/24 12:50:55;;;;;;;71.68;14.43;;;17.10;90.20;;;;;;5034040;28;20026;-87
2022/12/24 12:53:28;;;;;;;61.92;15.05;;;17.20;90.20;;;;;;4975734;28;20133;-85
2022/12/24 12:56:19;;;;;;;55.50;14.90;;;17.10;90.20;;;;;;4977867;28;20023;-85
2022/12/24 12:58:47;;;;;;;69.20;16.95;;;17.10;90.30;;;;;;4969929;28;20086;-86
2022/12/24 13:01:13;;;;;;;79.30;17.02;;;17.10;90.30;;;;;;4958321;28;20034;-85
2022/12/24 13:04:20;;;;;;;66.07;16.85;;;17.10;90.30;;;;;;4961364;28;20038;-85
2022/12/24 13:07:04;;;;;;;69.60;15.88;;;17.10;90.30;;;;;;4960428;28;20038;-80